Time;durP1;ratioP1;P1;durP2;ratioP2;P2;SDS_P1;SDS_P2;PMS_P1;PMS_P2;Temp;Humidity;BMP_temperature;BMP_pressure;BME280_temperature;BME280_humidity;BME280_pressure;Samples;Min_cycle;Max_cycle;Signal;HPM_P1;HPM_P2
2023/06/13 00:00:51;;;;;;;6.00;5.50;;;;;;;18.83;50.75;101065.75;5074074;28;20225;-82
2023/06/13 00:03:19;;;;;;;6.50;6.00;;;;;;;18.81;50.98;101072.88;5075211;28;20733;-83
2023/06/13 00:05:46;;;;;;;6.37;5.87;;;;;;;18.76;50.91;101062.47;5076398;28;20205;-82
2023/06/13 00:08:17;;;;;;;6.17;5.67;;;;;;;18.76;50.72;101067.75;5075376;28;20597;-83
2023/06/13 00:10:45;;;;;;;6.13;5.73;;;;;;;18.70;51.09;101065.38;5075384;28;20204;-83
2023/06/13 00:13:11;;;;;;;6.40;5.93;;;;;;;18.74;50.41;101064.31;5075637;28;20251;-83
2023/06/13 00:15:38;;;;;;;6.33;5.90;;;;;;;18.66;50.26;101087.59;5076432;28;20200;-83
2023/06/13 00:18:05;;;;;;;6.27;5.83;;;;;;;18.68;50.21;101080.44;5080037;28;20275;-82
2023/06/13 00:20:34;;;;;;;7.67;5.90;;;;;;;18.65;50.14;101086.72;5080031;28;20220;-83
2023/06/13 00:23:03;;;;;;;5.93;5.53;;;;;;;18.60;49.93;101096.63;5080281;28;20304;-83
2023/06/13 00:25:29;;;;;;;5.57;5.07;;;;;;;18.61;50.01;101097.47;5079606;28;20205;-83
2023/06/13 00:27:57;;;;;;;6.23;5.77;;;;;;;18.62;50.08;101102.72;5079637;28;20208;-82
2023/06/13 00:30:23;;;;;;;5.73;5.33;;;;;;;18.59;50.00;101105.50;5079991;28;20208;-83
2023/06/13 00:32:50;;;;;;;6.13;5.63;;;;;;;18.59;49.98;101100.22;5080078;28;20212;-83
2023/06/13 00:35:16;;;;;;;6.13;5.43;;;;;;;18.55;50.27;101095.09;5080154;28;20620;-83
2023/06/13 00:37:44;;;;;;;5.47;5.07;;;;;;;18.50;50.84;101089.16;5079843;28;20259;-83
2023/06/13 00:40:12;;;;;;;5.63;5.13;;;;;;;18.46;50.71;101069.91;5079009;28;20228;-83
2023/06/13 00:42:38;;;;;;;6.10;5.50;;;;;;;18.37;50.90;101065.84;5079473;28;20209;-83
2023/06/13 00:45:20;;;;;;;5.70;5.20;;;;;;;18.35;50.80;101062.41;5081031;28;20562;-83
2023/06/13 00:47:51;;;;;;;5.97;5.57;;;;;;;18.32;51.02;101062.56;5080359;28;20209;-83
2023/06/13 00:50:18;;;;;;;5.90;5.40;;;;;;;18.31;50.85;101057.34;5079813;28;20219;-83
2023/06/13 00:52:44;;;;;;;5.87;5.37;;;;;;;18.25;50.95;101061.97;5080158;28;20201;-82
2023/06/13 00:55:11;;;;;;;6.33;5.80;;;;;;;18.23;50.68;101061.13;5079789;28;20760;-83
2023/06/13 00:57:39;;;;;;;6.07;5.57;;;;;;;18.21;50.58;101062.13;5079960;28;20240;-82
2023/06/13 01:00:08;;;;;;;5.43;5.07;;;;;;;18.17;50.85;101061.38;5079492;28;20320;-83
2023/06/13 01:02:36;;;;;;;8.17;5.27;;;;;;;18.11;51.05;101063.44;5079985;28;20201;-83
2023/06/13 01:05:03;;;;;;;5.80;5.30;;;;;;;18.04;51.00;101053.13;5080019;28;20330;-84
2023/06/13 01:07:33;;;;;;;5.43;5.03;;;;;;;18.05;50.95;101056.59;5079849;28;20204;-83
2023/06/13 01:10:01;;;;;;;5.97;5.43;;;;;;;18.04;50.68;101055.75;5080313;28;20224;-83
2023/06/13 01:12:33;;;;;;;5.70;5.30;;;;;;;18.01;50.92;101057.66;5080108;28;20674;-83
2023/06/13 01:15:05;;;;;;;5.90;5.47;;;;;;;17.98;50.96;101056.00;5080595;28;20193;-84
2023/06/13 01:17:37;;;;;;;5.60;5.10;;;;;;;17.91;51.34;101051.88;5080724;28;20223;-83
2023/06/13 01:20:10;;;;;;;8.23;4.80;;;;;;;17.82;51.51;101042.50;5079734;28;20227;-84
2023/06/13 01:22:45;;;;;;;6.03;5.60;;;;;;;17.78;51.67;101040.03;5080425;28;20213;-83
2023/06/13 01:25:20;;;;;;;5.63;5.23;;;;;;;17.78;51.31;101033.00;5080731;28;20254;-83
2023/06/13 01:27:50;;;;;;;5.00;4.70;;;;;;;17.69;51.70;101032.50;5079359;28;20251;-84
2023/06/13 01:30:19;;;;;;;4.97;4.57;;;;;;;17.67;51.63;101025.47;5079933;28;20224;-83
2023/06/13 01:32:50;;;;;;;5.53;4.90;;;;;;;17.65;51.46;101023.81;5080268;28;20205;-83
2023/06/13 01:35:17;;;;;;;5.93;5.43;;;;;;;17.65;51.65;101021.19;5079904;28;20292;-83
2023/06/13 01:37:43;;;;;;;5.70;5.27;;;;;;;17.64;51.25;101027.38;5079542;28;20208;-84
2023/06/13 01:40:11;;;;;;;9.03;5.00;;;;;;;17.65;51.60;101029.97;5079946;28;20266;-83
2023/06/13 01:42:37;;;;;;;5.80;5.50;;;;;;;17.65;51.85;101026.47;5079747;28;20261;-84
2023/06/13 01:45:06;;;;;;;5.73;5.23;;;;;;;17.59;51.70;101019.63;5079659;28;20209;-83
2023/06/13 01:47:40;;;;;;;5.63;5.20;;;;;;;17.59;51.87;101017.00;5079500;28;20200;-84
2023/06/13 01:50:25;;;;;;;5.83;5.33;;;;;;;17.56;52.05;101014.50;5080732;28;20231;-83
2023/06/13 01:53:07;;;;;;;6.10;5.60;;;;;;;17.54;52.27;101007.53;5081098;28;20201;-83
2023/06/13 01:55:40;;;;;;;6.00;5.43;;;;;;;17.51;52.57;100997.13;5078849;28;20255;-82
2023/06/13 01:58:12;;;;;;;6.40;5.90;;;;;;;17.44;53.09;100994.72;5077121;28;20679;-83
2023/06/13 02:00:42;;;;;;;5.27;4.73;;;;;;;17.39;53.35;100988.75;5077179;28;20229;-82
2023/06/13 02:03:10;;;;;;;5.70;5.20;;;;;;;17.32;53.83;100965.28;5076992;28;20289;-82
2023/06/13 02:05:36;;;;;;;5.17;4.60;;;;;;;17.24;54.13;100957.66;5076959;28;20200;-82
2023/06/13 02:08:02;;;;;;;7.40;5.67;;;;;;;17.20;53.81;100948.13;5075969;28;20196;-82
2023/06/13 02:10:29;;;;;;;5.57;5.00;;;;;;;17.14;54.18;100943.94;5076913;28;20258;-83
2023/06/13 02:12:55;;;;;;;5.73;5.33;;;;;;;17.07;54.63;100935.44;5077104;28;20204;-84
2023/06/13 02:15:22;;;;;;;7.13;5.67;;;;;;;17.01;54.77;100924.25;5077753;28;20749;-84
2023/06/13 02:17:49;;;;;;;6.27;5.20;;;;;;;16.96;54.87;100916.50;5077125;28;20208;-83
2023/06/13 02:20:16;;;;;;;6.20;5.67;;;;;;;16.88;54.93;100910.66;5076562;28;20225;-84
2023/06/13 02:22:42;;;;;;;5.33;4.90;;;;;;;16.85;55.36;100905.53;5076938;28;20752;-83
2023/06/13 02:25:09;;;;;;;5.13;4.73;;;;;;;16.80;55.36;100892.44;5077017;28;20205;-84
2023/06/13 02:27:35;;;;;;;8.93;6.17;;;;;;;16.71;55.60;100891.94;5076422;28;20209;-84
2023/06/13 02:30:03;;;;;;;6.53;6.13;;;;;;;16.72;55.25;100878.69;5075935;28;20613;-84
2023/06/13 02:32:30;;;;;;;5.80;5.30;;;;;;;16.66;55.50;100885.06;5075885;28;20201;-84
2023/06/13 02:34:57;;;;;;;5.93;5.43;;;;;;;16.61;55.85;100884.38;5075762;28;20209;-83
2023/06/13 02:37:23;;;;;;;5.93;5.53;;;;;;;16.47;55.99;100877.00;5075814;28;20208;-82
2023/06/13 02:39:50;;;;;;;6.27;5.40;;;;;;;16.41;56.61;100864.03;5075112;28;20225;-82
2023/06/13 02:42:16;;;;;;;7.37;5.60;;;;;;;16.38;56.57;100855.38;5076573;28;20736;-84
2023/06/13 02:44:44;;;;;;;5.60;5.00;;;;;;;16.37;56.86;100841.34;5075825;28;20260;-82
2023/06/13 02:47:10;;;;;;;5.53;5.13;;;;;;;16.40;56.89;100835.09;5075825;28;20301;-83
2023/06/13 02:49:36;;;;;;;4.90;4.60;;;;;;;16.42;56.71;100833.28;5076074;28;20232;-82
2023/06/13 02:52:05;;;;;;;5.30;4.90;;;;;;;16.37;56.95;100840.47;5075652;28;20200;-83
2023/06/13 02:54:31;;;;;;;4.90;4.60;;;;;;;16.30;57.23;100834.56;5075868;28;20618;-82
2023/06/13 02:56:57;;;;;;;4.90;4.50;;;;;;;16.20;57.62;100833.19;5075855;28;20212;-81
2023/06/13 02:59:26;;;;;;;5.67;5.13;;;;;;;16.13;58.06;100815.88;5075331;28;20267;-83
2023/06/13 03:01:52;;;;;;;5.50;5.10;;;;;;;16.13;58.58;100798.31;5075271;28;20224;-85
2023/06/13 03:04:19;;;;;;;5.47;4.97;;;;;;;16.14;59.04;100791.28;5075452;28;20263;-84
2023/06/13 03:06:46;;;;;;;5.77;5.27;;;;;;;16.01;60.43;100756.63;5075327;28;20204;-83
2023/06/13 03:09:13;;;;;;;5.40;5.00;;;;;;;15.96;60.95;100729.63;5074622;28;20225;-83
2023/06/13 03:11:40;;;;;;;5.47;5.07;;;;;;;16.01;60.36;100714.47;5075427;28;20246;-84
2023/06/13 03:14:06;;;;;;;5.40;5.00;;;;;;;16.03;60.18;100718.78;5075428;28;20734;-84
2023/06/13 03:16:35;;;;;;;6.90;4.90;;;;;;;15.88;60.27;100725.47;5075901;28;20212;-84
2023/06/13 03:19:02;;;;;;;5.57;5.07;;;;;;;15.83;60.28;100731.81;5075904;28;20225;-84
2023/06/13 03:21:30;;;;;;;5.53;4.53;;;;;;;15.74;60.75;100719.84;5076042;28;20229;-84
2023/06/13 03:23:56;;;;;;;6.80;4.97;;;;;;;15.66;61.24;100712.19;5076560;28;20208;-84
2023/06/13 03:26:25;;;;;;;5.57;5.17;;;;;;;15.59;61.71;100692.28;5076817;28;20227;-84
2023/06/13 03:28:52;;;;;;;5.40;5.00;;;;;;;15.65;61.62;100678.03;5076732;28;20573;-84
2023/06/13 03:31:18;;;;;;;5.03;4.63;;;;;;;15.60;62.22;100675.59;5078543;28;20288;-84
2023/06/13 03:33:44;;;;;;;5.27;4.93;;;;;;;15.57;62.32;100666.94;5078025;28;20208;-84
2023/06/13 03:36:11;;;;;;;4.80;4.50;;;;;;;15.62;62.29;100651.84;5076529;28;20706;-82
2023/06/13 03:38:37;;;;;;;5.00;4.70;;;;;;;15.63;62.19;100658.81;5074334;28;20229;-83
2023/06/13 03:41:03;;;;;;;5.20;4.80;;;;;;;15.69;62.09;100661.22;5074756;28;20224;-82
2023/06/13 03:43:32;;;;;;;5.20;4.73;;;;;;;15.67;62.34;100663.06;5074675;28;20678;-83
2023/06/13 03:46:00;;;;;;;4.80;4.47;;;;;;;15.60;63.14;100651.00;5076548;28;20204;-84
2023/06/13 03:48:26;;;;;;;5.30;4.90;;;;;;;15.68;63.02;100641.94;5099217;22;20228;-80
2023/06/13 03:50:52;;;;;;;4.73;4.33;;;;;;;15.69;63.52;100645.44;5050207;28;20273;-78
2023/06/13 03:53:19;;;;;;;5.10;4.80;;;;;;;15.61;63.64;100629.91;5053375;28;20210;-79
2023/06/13 03:55:46;;;;;;;5.97;5.03;;;;;;;15.67;63.22;100634.09;5054048;28;20205;-79
2023/06/13 03:58:13;;;;;;;4.70;4.40;;;;;;;15.60;63.77;100644.00;5053559;28;20205;-78
2023/06/13 04:00:41;;;;;;;5.20;4.80;;;;;;;15.55;62.06;100650.34;5053558;28;20612;-79
2023/06/13 04:03:09;;;;;;;4.93;4.53;;;;;;;15.57;61.64;100678.31;5053745;28;20251;-79
2023/06/13 04:05:35;;;;;;;4.97;4.57;;;;;;;15.66;61.56;100688.50;5052097;28;20719;-77
2023/06/13 04:08:02;;;;;;;4.67;4.27;;;;;;;15.62;61.14;100699.22;5051649;28;20205;-77
2023/06/13 04:10:28;;;;;;;4.50;4.20;;;;;;;15.67;61.01;100720.94;5052128;28;20568;-77
2023/06/13 04:12:55;;;;;;;5.23;4.60;;;;;;;15.66;60.79;100724.50;5052198;28;20327;-77
2023/06/13 04:15:22;;;;;;;4.70;4.40;;;;;;;15.68;60.16;100736.69;5052136;28;20209;-77
2023/06/13 04:17:52;;;;;;;4.50;4.10;;;;;;;15.68;59.76;100749.00;5052307;28;20217;-77
2023/06/13 04:20:21;;;;;;;4.53;4.13;;;;;;;15.75;59.16;100771.56;5051973;28;20233;-77
2023/06/13 04:22:48;;;;;;;6.93;4.10;;;;;;;15.83;58.74;100795.84;5052479;28;20285;-77
2023/06/13 04:25:15;;;;;;;4.87;4.47;;;;;;;15.86;59.05;100813.34;5052348;28;20205;-77
2023/06/13 04:27:43;;;;;;;3.93;3.63;;;;;;;15.90;58.34;100817.56;5051961;28;20275;-77
2023/06/13 04:30:11;;;;;;;5.10;4.27;;;;;;;15.92;58.15;100826.28;5052787;28;20257;-77
2023/06/13 04:32:39;;;;;;;4.50;4.10;;;;;;;15.98;57.78;100838.38;5052367;28;20583;-77
2023/06/13 04:35:07;;;;;;;4.43;4.00;;;;;;;16.03;56.96;100849.59;5051954;28;20205;-77
2023/06/13 04:37:34;;;;;;;5.07;3.70;;;;;;;16.10;56.13;100876.59;5051933;28;20292;-77
2023/06/13 04:40:01;;;;;;;4.20;3.63;;;;;;;16.18;56.45;100887.72;5051421;28;20236;-77
2023/06/13 04:42:27;;;;;;;4.30;3.90;;;;;;;16.23;55.95;100904.19;5051988;28;20213;-77
2023/06/13 04:44:56;;;;;;;4.10;3.80;;;;;;;16.25;56.15;100905.88;5051850;28;20683;-77
2023/06/13 04:47:23;;;;;;;3.73;3.43;;;;;;;16.32;55.42;100910.94;5051748;28;20726;-77
2023/06/13 04:49:51;;;;;;;3.47;3.17;;;;;;;16.34;54.55;100925.75;5051738;28;20229;-77
2023/06/13 04:52:23;;;;;;;3.13;2.83;;;;;;;16.38;55.14;100943.19;5052171;28;20206;-76
2023/06/13 04:54:49;;;;;;;3.00;2.77;;;;;;;16.38;55.93;100937.06;5052056;28;20206;-77
2023/06/13 04:57:16;;;;;;;3.83;3.20;;;;;;;16.28;56.89;100918.94;5052148;28;20201;-76
2023/06/13 04:59:42;;;;;;;3.77;3.27;;;;;;;16.33;55.30;100910.00;5052167;28;20623;-77
2023/06/13 05:02:08;;;;;;;3.27;2.97;;;;;;;16.40;55.20;100924.69;5051949;28;20229;-77
2023/06/13 05:04:36;;;;;;;3.47;3.27;;;;;;;16.42;56.04;100920.22;5054756;28;20205;-77
2023/06/13 05:07:05;;;;;;;3.50;3.10;;;;;;;16.45;55.37;100925.38;5055592;28;20240;-77
2023/06/13 05:09:33;;;;;;;4.80;3.50;;;;;;;16.48;54.74;100939.31;5054765;28;20243;-77
2023/06/13 05:11:59;;;;;;;3.67;3.37;;;;;;;16.52;55.53;100942.69;5055929;28;20205;-77
2023/06/13 05:14:25;;;;;;;3.70;3.40;;;;;;;16.53;55.39;100933.00;5055339;28;20205;-77
2023/06/13 05:16:55;;;;;;;4.00;3.70;;;;;;;16.56;54.73;100936.41;5055312;28;20213;-77
2023/06/13 05:19:23;;;;;;;3.60;3.40;;;;;;;16.60;55.54;100938.00;5055553;28;20226;-77
2023/06/13 05:21:50;;;;;;;3.77;3.47;;;;;;;16.62;54.86;100930.91;5055223;28;20715;-77
2023/06/13 05:24:17;;;;;;;3.80;3.60;;;;;;;16.67;54.84;100936.88;5055666;28;20206;-78
2023/06/13 05:26:45;;;;;;;5.50;3.67;;;;;;;16.73;55.68;100942.81;5055747;28;20217;-76
2023/06/13 05:29:11;;;;;;;4.20;3.90;;;;;;;16.78;55.09;100928.56;5055116;28;20233;-77
2023/06/13 05:31:37;;;;;;;5.10;3.23;;;;;;;16.83;54.20;100945.13;5055232;28;20202;-77
2023/06/13 05:34:04;;;;;;;4.47;3.50;;;;;;;16.85;54.48;100960.88;5055233;28;20205;-76
2023/06/13 05:36:30;;;;;;;3.67;3.20;;;;;;;16.91;54.43;100960.66;5054904;28;20466;-76
2023/06/13 05:38:57;;;;;;;3.87;3.13;;;;;;;16.93;54.64;100958.81;5054779;28;20225;-76
2023/06/13 05:41:23;;;;;;;3.50;3.20;;;;;;;16.96;53.62;100961.34;5054972;28;20270;-76
2023/06/13 05:43:51;;;;;;;3.40;3.10;;;;;;;17.01;54.00;100972.59;5054881;28;20671;-77
2023/06/13 05:46:17;;;;;;;4.60;3.30;;;;;;;17.03;53.47;100962.84;5054728;28;20745;-77
2023/06/13 05:48:44;;;;;;;3.50;3.20;;;;;;;17.06;53.11;100989.09;5054493;28;20260;-77
2023/06/13 05:51:10;;;;;;;3.77;3.47;;;;;;;17.10;54.10;100991.63;5054635;28;20201;-76
2023/06/13 05:53:37;;;;;;;3.30;3.10;;;;;;;17.14;53.95;100982.66;5054914;28;20201;-77
2023/06/13 05:56:03;;;;;;;3.73;3.43;;;;;;;17.15;53.81;100982.63;5055191;28;20262;-77
2023/06/13 05:58:30;;;;;;;3.20;2.90;;;;;;;17.18;53.53;100977.22;5054507;28;20726;-77
2023/06/13 06:01:00;;;;;;;3.13;2.93;;;;;;;17.23;52.79;100995.53;5054628;28;20287;-77
2023/06/13 06:03:26;;;;;;;3.83;3.43;;;;;;;17.26;52.28;101004.19;5054691;28;20565;-77
2023/06/13 06:05:52;;;;;;;3.37;3.07;;;;;;;17.29;52.61;101021.69;5055050;28;20206;-77
2023/06/13 06:08:19;;;;;;;3.60;3.37;;;;;;;17.35;52.40;101017.94;5053974;28;20214;-77
2023/06/13 06:10:45;;;;;;;3.47;3.27;;;;;;;17.36;53.29;101019.66;5054914;28;20288;-77
2023/06/13 06:13:11;;;;;;;4.10;3.80;;;;;;;17.40;52.93;100995.75;5054609;28;20672;-77
2023/06/13 06:15:39;;;;;;;6.03;3.53;;;;;;;17.47;53.48;101005.13;5054245;28;20205;-77
2023/06/13 06:18:08;;;;;;;3.40;3.10;;;;;;;17.50;53.66;100995.38;5053944;28;20296;-77
2023/06/13 06:20:34;;;;;;;5.07;3.57;;;;;;;17.54;53.15;100984.66;5053933;28;20236;-77
2023/06/13 06:23:01;;;;;;;4.23;2.93;;;;;;;17.58;53.94;100988.00;5054463;28;20209;-78
2023/06/13 06:25:27;;;;;;;4.83;3.10;;;;;;;17.62;53.88;100982.56;5052108;28;20213;-78
2023/06/13 06:27:54;;;;;;;3.80;3.33;;;;;;;17.68;53.47;100976.19;5053690;28;20691;-76
2023/06/13 06:30:21;;;;;;;4.10;3.27;;;;;;;17.75;54.58;100972.38;5053393;28;20233;-78
2023/06/13 06:32:48;;;;;;;3.67;3.30;;;;;;;17.79;55.32;100944.91;5054224;28;20205;-78
2023/06/13 06:35:15;;;;;;;3.20;2.90;;;;;;;17.79;56.26;100929.06;5054879;28;20262;-80
2023/06/13 06:37:43;;;;;;;4.93;3.47;;;;;;;17.86;54.51;100903.31;5055324;28;20205;-79
2023/06/13 06:40:10;;;;;;;3.47;3.17;;;;;;;17.94;53.63;100919.69;5054184;28;20233;-78
2023/06/13 06:42:37;;;;;;;4.00;3.60;;;;;;;17.99;53.52;100946.75;5054240;28;20715;-77
2023/06/13 06:45:03;;;;;;;3.33;3.00;;;;;;;17.99;53.89;100967.03;5054153;28;20205;-78
2023/06/13 06:47:30;;;;;;;6.00;3.63;;;;;;;18.06;54.57;100966.72;5054831;28;20206;-79
2023/06/13 06:49:56;;;;;;;3.40;3.10;;;;;;;18.14;54.62;100953.19;5054189;28;20241;-79
2023/06/13 06:52:24;;;;;;;4.03;3.63;;;;;;;18.18;55.01;100938.06;5054968;28;20209;-79
2023/06/13 06:54:50;;;;;;;3.93;3.40;;;;;;;18.19;53.93;100943.28;5054873;28;20201;-79
2023/06/13 06:57:16;;;;;;;3.20;3.00;;;;;;;18.23;54.05;100955.44;5053654;28;20279;-79
2023/06/13 06:59:43;;;;;;;5.40;3.83;;;;;;;18.26;53.90;100957.09;5053257;28;20715;-79
2023/06/13 07:02:09;;;;;;;4.00;3.60;;;;;;;18.28;54.75;100957.03;5053946;28;20669;-79
2023/06/13 07:04:35;;;;;;;4.07;3.77;;;;;;;18.35;54.71;100937.34;5053494;28;20209;-79
2023/06/13 07:07:02;;;;;;;4.40;4.10;;;;;;;18.42;55.07;100934.38;5053234;28;20679;-78
2023/06/13 07:09:29;;;;;;;7.80;4.67;;;;;;;18.43;54.73;100943.16;5053160;28;20806;-79
2023/06/13 07:11:57;;;;;;;4.20;3.90;;;;;;;18.44;54.67;100937.78;5053296;28;20198;-79
2023/06/13 07:14:24;;;;;;;4.33;3.87;;;;;;;18.52;53.25;100939.25;5053099;28;20205;-79
2023/06/13 07:16:51;;;;;;;7.00;4.37;;;;;;;18.47;54.14;100960.59;5053230;28;20217;-79
2023/06/13 07:19:17;;;;;;;5.03;3.80;;;;;;;18.55;55.28;100953.22;5052777;28;20233;-79
2023/06/13 07:21:44;;;;;;;4.57;4.27;;;;;;;18.63;54.31;100937.84;5052755;28;20229;-79
2023/06/13 07:24:10;;;;;;;4.30;3.87;;;;;;;18.72;54.30;100951.59;5053141;28;20201;-79
2023/06/13 07:26:38;;;;;;;4.20;3.80;;;;;;;18.80;54.36;100944.19;5052229;28;20255;-79
2023/06/13 07:29:04;;;;;;;3.87;3.57;;;;;;;18.85;54.50;100951.00;5052373;28;20799;-79
2023/06/13 07:31:30;;;;;;;4.30;3.97;;;;;;;18.85;54.46;100958.09;5052646;28;20228;-80
2023/06/13 07:33:57;;;;;;;3.97;3.67;;;;;;;18.87;54.43;100950.06;5052323;28;20243;-80
2023/06/13 07:36:23;;;;;;;4.03;3.67;;;;;;;18.92;54.55;100953.38;5052338;28;20224;-79
2023/06/13 07:38:52;;;;;;;8.47;4.77;;;;;;;19.02;54.71;100946.72;5051902;28;20299;-79
2023/06/13 07:41:18;;;;;;;5.37;3.90;;;;;;;19.09;55.30;100942.88;5052130;28;20236;-79
2023/06/13 07:43:46;;;;;;;4.47;4.07;;;;;;;19.19;54.00;100930.06;5053945;28;20671;-79
2023/06/13 07:46:12;;;;;;;4.57;4.17;;;;;;;19.14;54.54;100950.59;5053803;28;20204;-79
2023/06/13 07:48:38;;;;;;;4.57;3.83;;;;;;;19.22;54.28;100945.78;5052969;28;20716;-79
2023/06/13 07:51:05;;;;;;;4.37;3.57;;;;;;;19.27;54.08;100945.59;5053412;28;20619;-78
2023/06/13 07:53:31;;;;;;;6.13;3.77;;;;;;;19.30;54.02;100958.66;5053313;28;20216;-79
2023/06/13 07:55:58;;;;;;;4.53;3.90;;;;;;;19.31;53.31;100971.84;5053247;28;20263;-79
2023/06/13 07:58:24;;;;;;;3.93;3.60;;;;;;;19.37;53.66;100976.00;5053119;28;20244;-79
2023/06/13 08:00:52;;;;;;;5.30;4.10;;;;;;;19.44;54.48;100970.34;5053829;28;20259;-79
2023/06/13 08:03:18;;;;;;;4.70;3.90;;;;;;;19.55;53.35;100968.97;5053081;28;20646;-78
2023/06/13 08:05:45;;;;;;;4.10;3.70;;;;;;;19.63;53.25;100967.66;5053576;28;20206;-79
2023/06/13 08:08:11;;;;;;;4.63;4.23;;;;;;;19.69;53.95;100985.03;5052830;28;20205;-80
2023/06/13 08:10:37;;;;;;;4.37;3.97;;;;;;;19.72;53.68;100982.28;5053797;28;20221;-80
2023/06/13 08:13:04;;;;;;;4.70;4.10;;;;;;;19.76;52.16;100983.84;5054215;28;20209;-80
2023/06/13 08:15:30;;;;;;;4.13;3.73;;;;;;;19.85;52.78;101003.72;5053974;28;20208;-80
2023/06/13 08:17:58;;;;;;;4.17;3.60;;;;;;;19.89;52.57;101009.75;5053911;28;20224;-80
2023/06/13 08:20:24;;;;;;;4.37;3.80;;;;;;;19.95;52.43;101031.50;5053596;28;20229;-80
2023/06/13 08:22:51;;;;;;;4.20;3.80;;;;;;;20.01;53.73;101015.28;5053991;28;20225;-80
2023/06/13 08:25:17;;;;;;;4.77;4.30;;;;;;;19.96;53.10;100993.47;5053883;28;20209;-79
2023/06/13 08:27:44;;;;;;;8.50;4.20;;;;;;;19.97;53.21;100989.88;5054144;28;20210;-80
2023/06/13 08:30:11;;;;;;;6.17;4.67;;;;;;;19.95;53.11;100982.94;5053698;28;20268;-80
2023/06/13 08:32:38;;;;;;;4.73;3.83;;;;;;;19.98;53.12;100982.78;5053780;28;20572;-80
2023/06/13 08:35:06;;;;;;;4.50;4.10;;;;;;;20.05;53.39;100978.91;5054052;28;20304;-80
2023/06/13 08:37:32;;;;;;;4.33;3.83;;;;;;;20.12;53.75;100966.19;5053470;28;20201;-80
2023/06/13 08:39:58;;;;;;;4.20;3.90;;;;;;;20.10;52.97;100974.25;5056853;28;20225;-80
2023/06/13 08:42:26;;;;;;;4.23;3.83;;;;;;;20.17;53.20;100978.28;5057587;28;20221;-80
2023/06/13 08:44:53;;;;;;;4.53;4.10;;;;;;;20.23;53.75;100961.22;5057507;28;20590;-80
2023/06/13 08:47:20;;;;;;;4.33;3.97;;;;;;;20.23;53.17;100969.16;5057009;28;20232;-80
2023/06/13 08:49:49;;;;;;;5.10;4.60;;;;;;;20.34;53.08;100964.19;5057380;28;20275;-80
2023/06/13 08:52:18;;;;;;;6.93;4.70;;;;;;;20.36;52.78;100972.06;5057514;28;20205;-81
2023/06/13 08:54:45;;;;;;;5.33;4.57;;;;;;;20.38;53.00;100981.66;5057585;28;20705;-80
2023/06/13 08:57:15;;;;;;;5.53;4.43;;;;;;;20.49;52.61;100980.22;5057260;28;20203;-80
2023/06/13 08:59:45;;;;;;;4.70;4.23;;;;;;;20.56;51.86;100997.56;5057211;28;20230;-80
2023/06/13 09:02:15;;;;;;;4.80;4.40;;;;;;;20.59;51.64;101011.56;5056802;28;20782;-80
2023/06/13 09:04:44;;;;;;;5.07;4.57;;;;;;;20.72;51.39;101009.09;5055879;28;20566;-79
2023/06/13 09:07:11;;;;;;;5.40;4.23;;;;;;;20.85;51.39;101025.22;5055536;28;20241;-80
2023/06/13 09:09:41;;;;;;;7.50;3.50;;;;;;;20.95;51.68;101030.91;5055628;28;20240;-79
2023/06/13 09:12:09;;;;;;;5.13;3.90;;;;;;;21.03;50.89;101026.94;5056242;28;20630;-80
2023/06/13 09:14:36;;;;;;;4.00;3.70;;;;;;;21.12;50.02;101056.56;5055918;28;20209;-79
2023/06/13 09:17:02;;;;;;;4.80;3.80;;;;;;;21.13;49.83;101079.50;5062154;28;20214;-79
2023/06/13 09:19:28;;;;;;;4.37;4.07;;;;;;;21.16;51.00;101066.94;5064666;28;20225;-78
2023/06/13 09:21:55;;;;;;;4.97;4.17;;;;;;;21.19;50.42;101061.47;5065539;28;20225;-80
2023/06/13 09:24:22;;;;;;;4.63;4.23;;;;;;;21.29;50.99;101058.31;5065612;28;20260;-78
2023/06/13 09:26:50;;;;;;;4.80;4.30;;;;;;;21.28;49.81;101078.69;5057520;28;20637;-79
2023/06/13 09:29:17;;;;;;;4.57;4.17;;;;;;;21.35;52.78;101076.59;5055255;28;20291;-80
2023/06/13 09:31:43;;;;;;;4.70;4.40;;;;;;;21.44;51.14;101022.97;5055393;28;20213;-79
2023/06/13 09:34:15;;;;;;;7.43;4.50;;;;;;;21.53;49.39;101042.88;5055177;28;20205;-79
2023/06/13 09:36:42;;;;;;;7.10;4.17;;;;;;;21.55;50.60;101073.72;5055071;28;20201;-78
2023/06/13 09:39:08;;;;;;;5.20;4.37;;;;;;;21.61;49.10;101068.09;5054764;28;20252;-80
2023/06/13 09:41:35;;;;;;;5.40;4.90;;;;;;;21.71;48.83;101097.66;5055348;28;20244;-79
2023/06/13 09:44:04;;;;;;;4.70;4.33;;;;;;;21.81;48.79;101100.66;5054782;28;20553;-79
2023/06/13 09:46:34;;;;;;;5.50;5.00;;;;;;;21.86;47.75;101109.22;5055381;28;20201;-80
2023/06/13 09:49:01;;;;;;;6.37;5.03;;;;;;;21.91;48.69;101141.75;5054026;28;20225;-80
2023/06/13 09:51:29;;;;;;;4.80;4.50;;;;;;;21.99;47.98;101115.59;5097782;22;20229;-85
2023/06/13 09:53:55;;;;;;;5.27;4.77;;;;;;;22.09;48.01;101112.41;5078799;28;20204;-86
2023/06/13 09:56:23;;;;;;;5.20;4.80;;;;;;;22.18;46.49;101127.88;5079437;28;20216;-86
2023/06/13 09:58:51;;;;;;;4.47;4.07;;;;;;;22.26;47.11;101132.75;5078955;28;20235;-84
2023/06/13 10:01:19;;;;;;;4.80;4.40;;;;;;;22.36;46.58;101164.09;5079243;28;20648;-85
2023/06/13 10:03:47;;;;;;;4.93;4.53;;;;;;;22.45;47.49;101148.53;5078840;28;20227;-84
2023/06/13 10:06:13;;;;;;;4.87;4.57;;;;;;;22.54;46.52;101156.00;5079036;28;20200;-83
2023/06/13 10:08:40;;;;;;;4.77;4.37;;;;;;;22.64;48.14;101145.69;5062745;28;20202;-85
2023/06/13 10:11:09;;;;;;;4.67;4.27;;;;;;;22.73;48.19;101135.31;5058848;28;20275;-84
2023/06/13 10:13:45;;;;;;;5.33;4.97;;;;;;;22.83;48.88;101117.00;5058500;28;20205;-84
2023/06/13 10:16:13;;;;;;;5.27;4.33;;;;;;;22.92;46.31;101136.91;5058157;28;20257;-85
2023/06/13 10:18:45;;;;;;;6.20;4.67;;;;;;;22.98;45.11;101166.69;5060691;28;20204;-85
2023/06/13 10:21:13;;;;;;;5.17;4.67;;;;;;;23.09;44.97;101183.84;5059106;28;20221;-85
2023/06/13 10:23:46;;;;;;;4.67;4.10;;;;;;;23.16;43.72;101238.50;5058606;28;20575;-85
2023/06/13 10:26:25;;;;;;;4.67;4.37;;;;;;;23.23;43.73;101277.16;5061832;28;20722;-85
2023/06/13 10:29:07;;;;;;;4.53;4.13;;;;;;;23.32;43.68;101283.72;5059731;28;20216;-85
2023/06/13 10:31:44;;;;;;;4.80;4.40;;;;;;;23.39;43.75;101299.25;5059034;28;20221;-86
2023/06/13 10:34:25;;;;;;;4.87;4.47;;;;;;;23.52;44.62;101272.72;5060107;28;20412;-85
2023/06/13 10:37:15;;;;;;;4.97;4.57;;;;;;;23.65;43.06;101261.34;5060341;28;20202;-85
2023/06/13 10:39:59;;;;;;;4.73;4.43;;;;;;;23.72;44.28;101292.84;5060216;28;20229;-83
2023/06/13 10:42:31;;;;;;;5.83;4.70;;;;;;;23.81;41.88;101283.47;5058684;28;20229;-85
2023/06/13 10:45:01;;;;;;;4.80;4.50;;;;;;;23.88;42.54;101342.63;5058493;28;20304;-85
2023/06/13 10:47:29;;;;;;;5.80;3.97;;;;;;;23.95;42.21;101325.31;5060068;28;20224;-84
2023/06/13 10:49:58;;;;;;;4.70;4.40;;;;;;;24.02;41.66;101329.28;5059296;28;20287;-84
2023/06/13 10:52:24;;;;;;;5.07;3.90;;;;;;;24.15;41.12;101335.59;5060404;28;20197;-84
2023/06/13 10:54:55;;;;;;;4.70;4.27;;;;;;;24.26;39.30;101371.44;5067100;28;20201;-84
2023/06/13 10:57:22;;;;;;;6.27;4.30;;;;;;;24.32;38.15;101409.28;5069649;28;20213;-83
2023/06/13 10:59:50;;;;;;;5.03;4.63;;;;;;;24.33;38.02;101471.50;5078152;28;20232;-84
2023/06/13 11:02:18;;;;;;;5.17;4.77;;;;;;;24.47;38.35;101514.25;5078769;28;20212;-84
2023/06/13 11:04:52;;;;;;;5.40;4.67;;;;;;;24.61;37.02;101504.56;5079542;28;20253;-84
2023/06/13 11:07:33;;;;;;;4.57;4.27;;;;;;;24.70;39.37;101550.25;5078995;28;20618;-84
2023/06/13 11:10:11;;;;;;;4.37;4.07;;;;;;;24.91;39.90;101481.28;5079488;28;20278;-84
2023/06/13 11:12:38;;;;;;;4.47;4.17;;;;;;;25.10;35.08;101483.69;5079948;28;20265;-83
2023/06/13 11:15:05;;;;;;;4.67;4.27;;;;;;;25.17;36.18;101604.38;5079148;28;20667;-84
2023/06/13 11:17:32;;;;;;;5.37;4.87;;;;;;;25.25;33.13;101631.56;5078748;28;20647;-84
2023/06/13 11:19:58;;;;;;;5.37;4.87;;;;;;;25.33;33.75;101637.28;5079574;28;20225;-85
2023/06/13 11:22:24;;;;;;;4.60;4.30;;;;;;;25.43;35.03;101664.31;5079298;28;20205;-83
2023/06/13 11:24:56;;;;;;;5.33;4.93;;;;;;;25.62;33.83;101650.63;5079322;28;20209;-84
2023/06/13 11:27:25;;;;;;;5.30;4.57;;;;;;;25.77;34.01;101646.97;5079168;28;20243;-85